Time;durP1;ratioP1;P1;durP2;ratioP2;P2;SDS_P1;SDS_P2;PMS_P1;PMS_P2;Temp;Humidity;BMP_temperature;BMP_pressure;BME280_temperature;BME280_humidity;BME280_pressure;Samples;Min_cycle;Max_cycle;Signal;HPM_P1;HPM_P2
2021/11/20 00:00:31;;;;;;;;;;;;;;;11.94;99.44;99855.11;1760929;80;20519;-81
2021/11/20 00:02:57;;;;;;;;;;;;;;;11.86;100.00;99831.62;1762267;80;20149;-80
2021/11/20 00:05:26;;;;;;;;;;;;;;;11.97;99.41;99832.27;1765582;80;21148;-82
2021/11/20 00:07:52;;;;;;;;;;;;;;;11.76;100.00;99857.48;1760503;80;20323;-82
2021/11/20 00:10:20;;;;;;;;;;;;;;;12.10;98.88;99837.81;1760043;79;20212;-82
2021/11/20 00:12:45;;;;;;;;;;;;;;;12.03;98.33;99842.98;1765223;80;20946;-82
2021/11/20 00:15:13;;;;;;;;;;;;;;;11.84;99.24;99829.66;1758983;80;20382;-81
2021/11/20 00:17:38;;;;;;;;;;;;;;;11.78;99.83;99824.23;1758691;80;21082;-80
2021/11/20 00:20:06;;;;;;;;;;;;;;;11.97;98.57;99861.38;1762189;79;20153;-82
2021/11/20 00:22:34;;;;;;;;;;;;;;;12.04;98.00;99850.41;1762922;80;20214;-81
2021/11/20 00:25:03;;;;;;;;;;;;;;;12.10;97.64;99866.92;1762872;80;20197;-81
2021/11/20 00:27:37;;;;;;;;;;;;;;;12.08;97.56;99850.41;1761353;80;20538;-80
2021/11/20 00:30:25;;;;;;;;;;;;;;;12.13;97.20;99845.41;1760280;80;20520;-82
2021/11/20 00:32:33;;;;;;;;;;;;;;;12.24;96.62;99865.88;1748914;80;20153;-84
2021/11/20 00:35:02;;;;;;;;;;;;;;;12.19;96.30;99902.13;1762528;80;20229;-81
2021/11/20 00:37:28;;;;;;;;;;;;;;;12.20;95.92;99868.88;1765370;80;20915;-81
2021/11/20 00:39:54;;;;;;;;;;;;;;;12.13;96.32;99862.61;1765151;80;20147;-83
2021/11/20 00:42:20;;;;;;;;;;;;;;;12.14;96.05;99880.16;1765947;80;21221;-81
2021/11/20 00:44:46;;;;;;;;;;;;;;;12.03;96.38;99888.48;1759491;79;20477;-81
2021/11/20 00:47:12;;;;;;;;;;;;;;;12.18;95.92;99866.91;1762813;79;20105;-82
2021/11/20 00:49:37;;;;;;;;;;;;;;;12.12;95.85;99859.66;1760766;80;20123;-80
2021/11/20 00:52:03;;;;;;;;;;;;;;;12.05;95.87;99877.22;1760793;80;20212;-81
2021/11/20 00:54:29;;;;;;;;;;;;;;;12.00;96.39;99863.69;1768323;80;21064;-82
2021/11/20 00:56:55;;;;;;;;;;;;;;;12.14;95.00;99873.53;1762397;80;20129;-82
2021/11/20 00:59:20;;;;;;;;;;;;;;;11.96;96.01;99870.31;1757705;79;21411;-82
2021/11/20 01:01:49;;;;;;;;;;;;;;;11.95;96.11;99876.62;1756139;79;20132;-79
2021/11/20 01:04:15;;;;;;;;;;;;;;;11.96;95.57;99867.66;1761584;79;20580;-83
2021/11/20 01:06:42;;;;;;;;;;;;;;;11.82;96.10;99922.09;1760723;80;21095;-79
2021/11/20 01:09:08;;;;;;;;;;;;;;;11.91;96.24;99868.66;1739077;82;20557;-80
2021/11/20 01:11:37;;;;;;;;;;;;;;;11.86;95.96;99879.24;1772453;80;20189;-81
2021/11/20 01:14:04;;;;;;;;;;;;;;;11.93;95.42;99888.70;1737674;81;20244;-80
2021/11/20 01:16:29;;;;;;;;;;;;;;;12.06;94.27;99909.31;1748646;81;20196;-79
2021/11/20 01:18:56;;;;;;;;;;;;;;;12.00;94.48;99884.86;1752970;81;21035;-81
2021/11/20 01:21:21;;;;;;;;;;;;;;;12.03;94.37;99876.58;1747356;81;20186;-81
2021/11/20 01:23:47;;;;;;;;;;;;;;;11.86;94.98;99911.00;1743166;80;20280;-82
2021/11/20 01:26:13;;;;;;;;;;;;;;;12.08;93.43;99903.34;1760920;80;20260;-84
2021/11/20 01:28:39;;;;;;;;;;;;;;;11.90;94.47;99890.81;1746922;81;20278;-81
2021/11/20 01:31:05;;;;;;;;;;;;;;;11.78;95.08;99902.28;1756141;81;21782;-81
2021/11/20 01:33:32;;;;;;;;;;;;;;;11.76;94.38;99918.32;1751279;81;20554;-82
2021/11/20 01:35:58;;;;;;;;;;;;;;;11.83;94.06;99878.27;1757219;81;20114;-79
2021/11/20 01:38:24;;;;;;;;;;;;;;;11.90;93.60;99885.04;1757903;80;20430;-82
2021/11/20 01:40:49;;;;;;;;;;;;;;;11.99;92.82;99878.75;1756903;81;20125;-81
2021/11/20 01:43:15;;;;;;;;;;;;;;;11.93;93.01;99868.01;1756792;81;21302;-81
2021/11/20 01:45:56;;;;;;;;;;;;;;;11.71;93.10;99866.91;1749248;81;20253;-81
2021/11/20 01:48:38;;;;;;;;;;;;;;;11.67;93.37;99865.92;1762406;80;20450;-80
2021/11/20 01:51:19;;;;;;;;;;;;;;;11.77;91.91;99894.00;1761068;80;20418;-80
2021/11/20 01:53:48;;;;;;;;;;;;;;;12.01;90.86;99873.28;1758085;80;20615;-80
2021/11/20 01:56:21;;;;;;;;;;;;;;;11.93;91.19;99889.17;1746519;81;21086;-79
2021/11/20 01:58:56;;;;;;;;;;;;;;;11.83;91.36;99893.32;1769964;80;20181;-81
2021/11/20 02:01:25;;;;;;;;;;;;;;;11.65;92.41;99878.98;1770284;80;20193;-79
2021/11/20 02:04:03;;;;;;;;;;;;;;;11.93;91.14;99858.27;1776910;80;20152;-79
2021/11/20 02:07:06;;;;;;;;;;;;;;;12.07;89.85;99852.72;1768270;80;20491;-80
2021/11/20 02:09:35;;;;;;;;;;;;;;;12.20;88.93;99878.64;1766829;80;21275;-79
2021/11/20 02:12:13;;;;;;;;;;;;;;;11.99;90.19;99858.05;1774077;80;20213;-82
2021/11/20 02:14:39;;;;;;;;;;;;;;;11.91;90.41;99859.39;1771665;80;20206;-80
2021/11/20 02:17:15;;;;;;;;;;;;;;;11.90;90.14;99868.31;1762286;80;20184;-80
2021/11/20 02:19:43;;;;;;;;;;;;;;;12.05;89.18;99885.16;1768693;80;20473;-80
2021/11/20 02:22:21;;;;;;;;;;;;;;;12.14;88.38;99870.89;1774354;80;22461;-80
2021/11/20 02:24:47;;;;;;;;;;;;;;;11.97;89.06;99869.32;1765588;80;20340;-78
2021/11/20 02:27:13;;;;;;;;;;;;;;;12.16;88.54;99864.91;1760704;79;20787;-79
2021/11/20 02:29:49;;;;;;;;;;;;;;;12.20;88.27;99871.52;1769571;80;20184;-79
2021/11/20 02:32:13;;;;;;;;;;;;;;;11.96;89.19;99872.95;1767305;79;20561;-81
2021/11/20 02:34:39;;;;;;;;;;;;;;;12.20;88.42;99903.28;1731010;80;21598;-81
2021/11/20 02:37:05;;;;;;;;;;;;;;;12.14;88.74;99869.56;1760825;80;20470;-81
2021/11/20 02:39:31;;;;;;;;;;;;;;;12.19;88.45;99871.19;1765319;80;20139;-83
2021/11/20 02:41:58;;;;;;;;;;;;;;;11.98;88.50;99877.59;1765353;80;20132;-82
2021/11/20 02:44:24;;;;;;;;;;;;;;;11.83;89.43;99899.94;1765204;80;20138;-82
2021/11/20 02:46:53;;;;;;;;;;;;;;;11.98;88.53;99863.05;1765577;80;21966;-82
2021/11/20 02:49:19;;;;;;;;;;;;;;;12.03;89.66;99873.93;1764139;80;20134;-83
2021/11/20 02:51:48;;;;;;;;;;;;;;;11.94;88.65;99904.06;1766739;80;20264;-82
2021/11/20 02:54:18;;;;;;;;;;;;;;;12.00;88.13;99884.86;1769295;80;20184;-80
2021/11/20 02:56:59;;;;;;;;;;;;;;;11.93;87.77;99868.85;1762954;80;20493;-80
2021/11/20 02:59:24;;;;;;;;;;;;;;;12.02;87.72;99874.91;1763931;80;21261;-82
2021/11/20 03:01:50;;;;;;;;;;;;;;;12.02;87.29;99870.95;1760929;80;20203;-79
2021/11/20 03:04:18;;;;;;;;;;;;;;;11.99;87.10;99867.31;1765863;80;20288;-82
2021/11/20 03:06:43;;;;;;;;;;;;;;;12.05;86.82;99882.51;1762480;80;20190;-83
2021/11/20 03:09:10;;;;;;;;;;;;;;;11.97;86.74;99889.17;1761273;80;20445;-84
2021/11/20 03:11:36;;;;;;;;;;;;;;;11.92;86.85;99890.16;1763811;80;21168;-81
2021/11/20 03:14:06;;;;;;;;;;;;;;;11.98;87.25;99892.16;1763981;80;20753;-79
2021/11/20 03:16:29;;;;;;;;;;;;;;;11.93;86.96;99901.08;1767488;80;20121;-82
2021/11/20 03:18:55;;;;;;;;;;;;;;;11.90;86.79;99893.45;1761789;80;20121;-81
2021/11/20 03:21:21;;;;;;;;;;;;;;;12.04;86.49;99900.70;1761661;80;20822;-81
2021/11/20 03:23:49;;;;;;;;;;;;;;;12.06;86.37;99897.41;1769948;80;21276;-81
2021/11/20 03:26:15;;;;;;;;;;;;;;;12.00;86.67;99924.55;1762158;80;20183;-82
2021/11/20 03:28:40;;;;;;;;;;;;;;;11.93;86.91;99905.05;1768822;80;21407;-83
2021/11/20 03:31:06;;;;;;;;;;;;;;;12.03;86.44;99918.92;1770210;79;20184;-81
2021/11/20 03:33:31;;;;;;;;;;;;;;;11.81;87.38;99950.38;1763383;80;20497;-81
2021/11/20 03:35:57;;;;;;;;;;;;;;;11.90;86.96;99904.04;1760968;80;21319;-82
2021/11/20 03:38:23;;;;;;;;;;;;;;;11.90;87.00;99906.69;1757677;80;20195;-83
2021/11/20 03:40:48;;;;;;;;;;;;;;;11.83;87.10;99917.95;1758477;80;20599;-81
2021/11/20 03:43:14;;;;;;;;;;;;;;;11.95;86.63;99926.89;1760581;80;20177;-83
2021/11/20 03:45:40;;;;;;;;;;;;;;;11.80;87.10;99937.31;1764779;80;20219;-82
2021/11/20 03:48:06;;;;;;;;;;;;;;;11.69;87.48;99935.84;1760727;80;20963;-81
2021/11/20 03:50:32;;;;;;;;;;;;;;;11.74;86.97;99938.80;1766499;80;20175;-81
2021/11/20 03:52:57;;;;;;;;;;;;;;;12.02;86.10;99922.55;1760404;80;20220;-82
2021/11/20 03:55:26;;;;;;;;;;;;;;;11.94;86.03;99967.58;1766408;80;20130;-80
2021/11/20 03:57:52;;;;;;;;;;;;;;;11.99;85.85;99962.59;1763354;80;21113;-79
2021/11/20 04:00:18;;;;;;;;;;;;;;;11.90;85.76;99972.84;1761200;80;21077;-81
2021/11/20 04:02:44;;;;;;;;;;;;;;;11.84;85.69;99948.72;1761685;80;20517;-80
2021/11/20 04:05:10;;;;;;;;;;;;;;;11.94;84.48;99955.16;1764303;80;20277;-83
2021/11/20 04:07:36;;;;;;;;;;;;;;;11.99;84.40;99958.62;1763830;80;20307;-80
2021/11/20 04:10:03;;;;;;;;;;;;;;;12.03;84.07;99953.33;1763694;80;20157;-80
2021/11/20 04:12:28;;;;;;;;;;;;;;;11.96;84.02;99968.22;1766977;80;21077;-82
2021/11/20 04:14:54;;;;;;;;;;;;;;;11.84;84.64;99969.87;1767214;80;20256;-80
2021/11/20 04:17:20;;;;;;;;;;;;;;;11.93;84.21;99957.97;1761639;80;20193;-81
2021/11/20 04:19:45;;;;;;;;;;;;;;;11.90;84.63;99964.89;1767338;80;20600;-79
2021/11/20 04:22:11;;;;;;;;;;;;;;;11.59;85.93;99986.30;1766434;80;20153;-80
2021/11/20 04:24:36;;;;;;;;;;;;;;;11.55;85.88;99965.64;1755062;80;22306;-80
2021/11/20 04:27:02;;;;;;;;;;;;;;;11.42;85.94;99977.55;1759703;80;20121;-79
2021/11/20 04:29:27;;;;;;;;;;;;;;;11.55;85.71;99980.18;1767088;80;20132;-82
2021/11/20 04:31:53;;;;;;;;;;;;;;;11.33;86.13;99967.96;1758312;80;20188;-80
2021/11/20 04:34:19;;;;;;;;;;;;;;;11.18;86.66;100001.33;1764555;80;20125;-81
2021/11/20 04:36:44;;;;;;;;;;;;;;;11.18;86.75;99978.86;1762491;80;21142;-81
2021/11/20 04:39:11;;;;;;;;;;;;;;;11.12;86.94;99999.67;1767850;80;20206;-81
2021/11/20 04:41:37;;;;;;;;;;;;;;;11.07;86.63;99960.19;1765880;80;20169;-81
2021/11/20 04:44:03;;;;;;;;;;;;;;;11.03;86.59;99976.88;1770218;80;20631;-80
2021/11/20 04:46:29;;;;;;;;;;;;;;;11.08;86.14;99984.31;1766930;80;20331;-81
2021/11/20 04:48:55;;;;;;;;;;;;;;;11.10;85.92;99991.06;1759847;80;22373;-80
2021/11/20 04:51:21;;;;;;;;;;;;;;;11.10;85.47;100010.88;1764132;80;20160;-82
2021/11/20 04:53:46;;;;;;;;;;;;;;;11.08;85.63;99978.52;1764925;80;20140;-81
2021/11/20 04:56:13;;;;;;;;;;;;;;;11.02;85.52;99998.98;1768681;80;20184;-80
2021/11/20 04:58:40;;;;;;;;;;;;;;;11.07;85.22;100003.28;1768481;80;20328;-80
2021/11/20 05:01:06;;;;;;;;;;;;;;;10.99;84.63;99992.70;1765362;80;21290;-80
2021/11/20 05:03:32;;;;;;;;;;;;;;;11.02;84.66;100009.56;1765661;80;20176;-81
2021/11/20 05:05:58;;;;;;;;;;;;;;;10.93;84.54;100026.38;1765419;80;20216;-81
2021/11/20 05:08:24;;;;;;;;;;;;;;;11.04;83.45;100036.64;1765162;80;20504;-81
2021/11/20 05:10:50;;;;;;;;;;;;;;;11.12;83.19;100021.30;1762147;80;20229;-82
2021/11/20 05:13:16;;;;;;;;;;;;;;;11.02;83.40;100018.80;1761979;80;21861;-81
2021/11/20 05:15:43;;;;;;;;;;;;;;;11.03;82.66;100007.27;1771033;80;20258;-81
2021/11/20 05:18:09;;;;;;;;;;;;;;;10.84;83.11;100004.89;1766800;80;20163;-81
2021/11/20 05:20:35;;;;;;;;;;;;;;;10.88;83.07;100024.23;1767273;80;20651;-82
2021/11/20 05:23:00;;;;;;;;;;;;;;;10.89;82.85;100031.64;1765182;80;20200;-80
2021/11/20 05:25:26;;;;;;;;;;;;;;;10.83;82.73;100097.01;1760779;80;21888;-79
2021/11/20 05:27:54;;;;;;;;;;;;;;;10.92;82.13;100049.81;1768994;80;20123;-81
2021/11/20 05:30:27;;;;;;;;;;;;;;;11.02;81.76;100030.70;1764944;80;20189;-80
2021/11/20 05:32:50;;;;;;;;;;;;;;;10.98;81.73;100045.20;1763227;80;20144;-82
2021/11/20 05:35:16;;;;;;;;;;;;;;;10.93;82.03;100058.09;1757714;80;20121;-78
2021/11/20 05:37:42;;;;;;;;;;;;;;;10.90;81.97;100061.05;1764281;80;21140;-79
2021/11/20 05:40:08;;;;;;;;;;;;;;;10.86;82.18;100061.02;1765780;80;20199;-78
2021/11/20 05:42:34;;;;;;;;;;;;;;;10.87;82.25;100050.30;1768284;80;20487;-78
2021/11/20 05:45:00;;;;;;;;;;;;;;;10.72;82.69;100082.27;1764866;80;20180;-81
2021/11/20 05:47:26;;;;;;;;;;;;;;;10.89;82.06;100071.27;1763672;80;20264;-79
2021/11/20 05:49:51;;;;;;;;;;;;;;;10.82;82.06;100078.20;1761874;80;21164;-81
2021/11/20 05:52:17;;;;;;;;;;;;;;;10.85;81.57;100072.59;1763950;80;20116;-78
2021/11/20 05:54:43;;;;;;;;;;;;;;;10.85;81.42;100084.48;1757358;80;20633;-78
2021/11/20 05:57:09;;;;;;;;;;;;;;;10.69;81.97;100099.75;1762449;80;20192;-78
2021/11/20 05:59:35;;;;;;;;;;;;;;;10.79;81.76;100112.36;1771858;80;20108;-78
2021/11/20 06:02:01;;;;;;;;;;;;;;;10.73;81.66;100078.15;1752214;80;22385;-80
2021/11/20 06:04:29;;;;;;;;;;;;;;;10.76;81.58;100089.72;1756558;80;20287;-78
2021/11/20 06:06:54;;;;;;;;;;;;;;;10.72;81.89;100087.08;1758594;80;20134;-78
2021/11/20 06:09:19;;;;;;;;;;;;;;;10.78;81.60;100094.37;1760190;80;20274;-78
2021/11/20 06:11:45;;;;;;;;;;;;;;;10.76;81.74;100093.67;1759031;80;20157;-77
2021/11/20 06:14:11;;;;;;;;;;;;;;;10.76;82.04;100102.11;1758840;80;21949;-82
2021/11/20 06:16:37;;;;;;;;;;;;;;;10.74;82.10;100111.51;1764190;80;20700;-82
2021/11/20 06:19:03;;;;;;;;;;;;;;;10.68;82.21;100109.50;1762869;80;20417;-81
2021/11/20 06:21:29;;;;;;;;;;;;;;;10.69;82.43;100119.56;1759307;80;20211;-78
2021/11/20 06:23:54;;;;;;;;;;;;;;;10.89;81.68;100113.55;1766709;80;20140;-79
2021/11/20 06:26:20;;;;;;;;;;;;;;;10.88;81.61;100139.14;1763826;80;21086;-79
2021/11/20 06:28:46;;;;;;;;;;;;;;;10.88;81.50;100114.55;1766086;80;20735;-80
2021/11/20 06:31:11;;;;;;;;;;;;;;;10.91;81.36;100123.48;1760792;80;20165;-78
2021/11/20 06:33:37;;;;;;;;;;;;;;;10.86;81.34;100129.71;1755936;80;20138;-79
2021/11/20 06:36:03;;;;;;;;;;;;;;;10.81;81.41;100126.22;1771382;80;20176;-78
2021/11/20 06:38:29;;;;;;;;;;;;;;;10.83;81.29;100133.98;1758316;80;21089;-78
2021/11/20 06:40:56;;;;;;;;;;;;;;;10.93;81.10;100142.63;1761915;80;20758;-80
2021/11/20 06:43:24;;;;;;;;;;;;;;;10.90;81.14;100141.63;1755922;80;20144;-83
2021/11/20 06:45:51;;;;;;;;;;;;;;;10.91;81.04;100139.33;1759820;80;20155;-78
2021/11/20 06:48:16;;;;;;;;;;;;;;;10.94;81.06;100156.19;1753406;80;20143;-79
2021/11/20 06:50:43;;;;;;;;;;;;;;;10.91;81.06;100181.60;1764868;80;21569;-82
2021/11/20 06:53:09;;;;;;;;;;;;;;;10.85;81.56;100148.70;1756327;80;20205;-79
2021/11/20 06:55:35;;;;;;;;;;;;;;;10.85;81.59;100162.42;1758155;80;20113;-80
2021/11/20 06:58:20;;;;;;;;;;;;;;;10.93;81.27;100167.73;1757589;80;20184;-78
2021/11/20 07:00:38;;;;;;;;;;;;;;;10.96;81.33;100164.77;1735691;81;20480;-79
2021/11/20 07:03:12;;;;;;;;;;;;;;;11.00;81.15;100176.70;1758060;80;21157;-79
2021/11/20 07:05:45;;;;;;;;;;;;;;;10.99;81.12;100215.17;1744388;80;20233;-78
2021/11/20 07:08:10;;;;;;;;;;;;;;;10.96;81.09;100209.69;1757086;80;20175;-84
2021/11/20 07:10:36;;;;;;;;;;;;;;;10.97;81.23;100190.22;1759508;80;20116;-77
2021/11/20 07:13:02;;;;;;;;;;;;;;;10.97;81.09;100202.11;1758282;80;20194;-78
2021/11/20 07:15:28;;;;;;;;;;;;;;;10.88;81.50;100214.94;1762446;80;21962;-79
2021/11/20 07:17:54;;;;;;;;;;;;;;;10.92;81.47;100197.77;1759255;80;20147;-77
2021/11/20 07:20:21;;;;;;;;;;;;;;;10.99;81.14;100221.27;1753080;80;20248;-78
2021/11/20 07:22:48;;;;;;;;;;;;;;;11.04;80.85;100201.80;1754925;80;20193;-78
2021/11/20 07:25:14;;;;;;;;;;;;;;;11.11;80.64;100213.41;1756057;80;20176;-80
2021/11/20 07:27:39;;;;;;;;;;;;;;;11.01;80.73;100193.36;1756055;80;21214;-80
2021/11/20 07:30:05;;;;;;;;;;;;;;;10.95;80.92;100179.81;1760047;80;20190;-80
2021/11/20 07:32:31;;;;;;;;;;;;;;;11.09;80.38;100202.64;1749609;80;20140;-77
2021/11/20 07:34:57;;;;;;;;;;;;;;;10.88;80.89;100164.24;1752531;81;20132;-82
2021/11/20 07:37:22;;;;;;;;;;;;;;;11.02;80.86;100181.82;1747005;81;20210;-81
2021/11/20 07:39:48;;;;;;;;;;;;;;;10.90;80.80;100189.19;1750440;81;21196;-77
2021/11/20 07:42:13;;;;;;;;;;;;;;;10.99;80.73;100188.23;1747913;81;20754;-81
2021/11/20 07:44:39;;;;;;;;;;;;;;;10.95;80.63;100185.56;1755259;81;20166;-80
2021/11/20 07:47:05;;;;;;;;;;;;;;;11.06;80.50;100195.88;1752145;81;21339;-80
2021/11/20 07:49:30;;;;;;;;;;;;;;;10.97;80.55;100187.58;1752129;81;20184;-80
2021/11/20 07:51:56;;;;;;;;;;;;;;;10.99;80.38;100182.95;1746732;81;21091;-79
2021/11/20 07:54:21;;;;;;;;;;;;;;;10.98;80.48;100194.50;1746324;81;20151;-78
2021/11/20 07:56:47;;;;;;;;;;;;;;;11.00;80.36;100215.01;1749728;81;20173;-79
2021/11/20 07:59:14;;;;;;;;;;;;;;;11.05;80.20;100192.89;1753628;81;20310;-78
2021/11/20 08:01:40;;;;;;;;;;;;;;;11.14;80.02;100215.73;1745919;81;20102;-80
2021/11/20 08:04:05;;;;;;;;;;;;;;;11.07;80.01;100217.34;1749980;81;21889;-79
2021/11/20 08:06:31;;;;;;;;;;;;;;;11.10;79.70;100235.52;1745641;80;20144;-82
2021/11/20 08:09:02;;;;;;;;;;;;;;;11.09;79.80;100196.89;1748892;80;20223;-81
2021/11/20 08:11:26;;;;;;;;;;;;;;;10.99;79.84;100216.48;1745398;80;20129;-79
2021/11/20 08:13:52;;;;;;;;;;;;;;;11.01;80.13;100223.25;1744028;81;20574;-78
2021/11/20 08:16:17;;;;;;;;;;;;;;;11.01;80.15;100216.64;1748725;80;21155;-78
2021/11/20 08:18:43;;;;;;;;;;;;;;;10.96;80.02;100245.36;1750100;80;21635;-78
2021/11/20 08:21:09;;;;;;;;;;;;;;;10.99;80.09;100219.95;1751483;80;20143;-82
2021/11/20 08:23:35;;;;;;;;;;;;;;;11.12;79.76;100208.94;1746574;81;20759;-79
2021/11/20 08:26:01;;;;;;;;;;;;;;;11.16;79.68;100216.08;1743452;81;20190;-79
2021/11/20 08:28:26;;;;;;;;;;;;;;;11.21;79.09;100224.35;1751984;81;21092;-79
2021/11/20 08:30:52;;;;;;;;;;;;;;;11.30;79.26;100228.18;1749651;81;20294;-81
2021/11/20 08:33:17;;;;;;;;;;;;;;;11.19;79.05;100247.48;1751321;80;20430;-77
2021/11/20 08:35:43;;;;;;;;;;;;;;;11.23;79.05;100232.47;1750366;80;20134;-81
2021/11/20 08:38:10;;;;;;;;;;;;;;;11.47;78.55;100239.66;1749119;80;20168;-80
2021/11/20 08:40:36;;;;;;;;;;;;;;;11.45;78.59;100250.89;1750421;81;21095;-77
2021/11/20 08:43:01;;;;;;;;;;;;;;;11.43;78.39;100263.42;1761847;79;20219;-76
2021/11/20 08:45:29;;;;;;;;;;;;;;;11.24;78.58;100291.44;1764472;80;20203;-78
2021/11/20 08:47:56;;;;;;;;;;;;;;;11.43;78.00;100264.75;1763352;79;20691;-80
2021/11/20 08:50:25;;;;;;;;;;;;;;;11.32;78.47;100270.33;1759392;80;20153;-78
2021/11/20 08:52:51;;;;;;;;;;;;;;;11.46;77.57;100271.55;1759263;80;21072;-78
2021/11/20 08:55:16;;;;;;;;;;;;;;;11.21;78.01;100295.72;1762462;80;20190;-81
2021/11/20 08:57:42;;;;;;;;;;;;;;;11.27;77.28;100283.20;1764097;79;20556;-77
2021/11/20 09:00:11;;;;;;;;;;;;;;;11.21;77.37;100303.65;1762339;80;20124;-78
2021/11/20 09:02:43;;;;;;;;;;;;;;;11.39;76.90;100281.09;1761971;79;20329;-77
2021/11/20 09:05:18;;;;;;;;;;;;;;;11.46;76.82;100267.08;1759256;80;21075;-79
2021/11/20 09:07:56;;;;;;;;;;;;;;;11.50;76.10;100281.65;1756802;79;20495;-81
2021/11/20 09:10:26;;;;;;;;;;;;;;;11.30;76.75;100286.84;1749543;79;20681;-77
2021/11/20 09:12:55;;;;;;;;;;;;;;;11.36;76.95;100273.00;1759164;79;20338;-78
2021/11/20 09:15:24;;;;;;;;;;;;;;;11.29;77.03;100286.50;1763547;80;20469;-78
2021/11/20 09:17:50;;;;;;;;;;;;;;;11.35;76.86;100291.16;1757720;79;21083;-77
2021/11/20 09:20:17;;;;;;;;;;;;;;;11.21;77.81;100260.03;1759905;80;20129;-77
2021/11/20 09:22:42;;;;;;;;;;;;;;;11.49;77.10;100269.40;1744334;81;20310;-78
2021/11/20 09:25:09;;;;;;;;;;;;;;;11.46;77.10;100280.30;1780652;78;20374;-75
2021/11/20 09:27:35;;;;;;;;;;;;;;;11.46;76.89;100267.08;1753881;80;20222;-76
2021/11/20 09:30:01;;;;;;;;;;;;;;;11.61;76.54;100261.20;1749320;80;21110;-75
2021/11/20 09:32:27;;;;;;;;;;;;;;;11.44;76.34;100262.95;1745197;81;20234;-77
2021/11/20 09:34:52;;;;;;;;;;;;;;;11.53;76.32;100257.19;1752865;80;20649;-76
2021/11/20 09:37:18;;;;;;;;;;;;;;;11.35;76.67;100272.66;1774337;79;21290;-78
2021/11/20 09:39:43;;;;;;;;;;;;;;;11.47;76.33;100251.55;1732338;82;20118;-76
2021/11/20 09:42:19;;;;;;;;;;;;;;;11.56;76.07;100261.68;1740495;80;21937;-76
2021/11/20 09:44:46;;;;;;;;;;;;;;;11.52;76.31;100256.88;1740475;81;20499;-78
2021/11/20 09:47:34;;;;;;;;;;;;;;;11.38;76.82;100256.47;1740403;81;20965;-76
2021/11/20 09:50:16;;;;;;;;;;;;;;;11.48;76.53;100254.55;1749995;81;20151;-75
2021/11/20 09:52:42;;;;;;;;;;;;;;;11.27;76.39;100276.59;1750728;81;20181;-81
2021/11/20 09:55:09;;;;;;;;;;;;;;;11.11;77.00;100247.77;1751582;81;21095;-76
2021/11/20 09:57:38;;;;;;;;;;;;;;;11.19;76.84;100225.02;1747833;81;20141;-77
2021/11/20 10:00:43;;;;;;;;;;;;;;;11.40;76.38;100247.88;1741965;81;20524;-76
2021/11/20 10:03:11;;;;;;;;;;;;;;;11.42;76.36;100241.95;1749058;81;21131;-77
2021/11/20 10:05:40;;;;;;;;;;;;;;;11.53;76.10;100236.02;1777261;80;20207;-77
2021/11/20 10:08:14;;;;;;;;;;;;;;;11.42;75.90;100244.60;1745534;80;21075;-81
2021/11/20 10:10:44;;;;;;;;;;;;;;;11.44;75.81;100251.88;1777920;80;20154;-76
2021/11/20 10:13:22;;;;;;;;;;;;;;;11.58;75.39;100233.75;1734367;82;20221;-78
2021/11/20 10:16:03;;;;;;;;;;;;;;;11.49;75.01;100225.77;1708854;82;38095;-77
2021/11/20 10:18:32;;;;;;;;;;;;;;;11.45;74.78;100223.13;1773945;79;20165;-75
2021/11/20 10:21:16;;;;;;;;;;;;;;;11.58;74.36;100240.36;1777816;79;20992;-81
2021/11/20 10:23:49;;;;;;;;;;;;;;;11.57;73.75;100242.66;1758355;80;20227;-76
2021/11/20 10:26:33;;;;;;;;;;;;;;;11.50;74.13;100228.75;1757991;80;20205;-78
2021/11/20 10:29:05;;;;;;;;;;;;;;;11.43;74.26;100232.20;1760797;80;20219;-75
2021/11/20 10:31:34;;;;;;;;;;;;;;;11.58;74.42;100232.42;1754830;80;20915;-76
2021/11/20 10:34:24;;;;;;;;;;;;;;;11.74;73.87;100228.99;1763148;80;21188;-76
2021/11/20 10:36:56;;;;;;;;;;;;;;;11.59;74.44;100268.45;1761976;80;20199;-77
2021/11/20 10:39:28;;;;;;;;;;;;;;;11.71;74.58;100249.97;1765471;80;20137;-77
2021/11/20 10:42:00;;;;;;;;;;;;;;;11.59;74.55;100239.35;1759165;80;20190;-81
2021/11/20 10:44:41;;;;;;;;;;;;;;;11.68;74.40;100235.27;1763233;80;20261;-75
2021/11/20 10:47:14;;;;;;;;;;;;;;;11.70;74.19;100225.85;1762945;80;21072;-79
2021/11/20 10:50:10;;;;;;;;;;;;;;;11.52;74.60;100244.97;1762024;80;20321;-76
2021/11/20 10:53:03;;;;;;;;;;;;;;;11.39;75.36;100215.83;1761119;80;20133;-77
2021/11/20 10:56:01;;;;;;;;;;;;;;;11.63;75.08;100222.19;1758678;80;20185;-77
2021/11/20 10:58:33;;;;;;;;;;;;;;;11.73;74.79;100243.20;1727645;80;20165;-80
2021/11/20 11:01:36;;;;;;;;;;;;;;;11.72;74.58;100223.86;1757684;80;21120;-76
2021/11/20 11:04:28;;;;;;;;;;;;;;;11.74;74.55;100220.55;1759004;80;21280;-75
2021/11/20 11:06:57;;;;;;;;;;;;;;;11.71;74.77;100216.91;1758241;80;20211;-77
2021/11/20 11:09:38;;;;;;;;;;;;;;;11.62;74.67;100213.91;1762998;80;20326;-77
2021/11/20 11:12:37;;;;;;;;;;;;;;;11.59;75.07;100223.48;1757805;80;20196;-76
2021/11/20 11:15:15;;;;;;;;;;;;;;;11.83;74.11;100222.22;1757586;80;21237;-77
2021/11/20 11:17:58;;;;;;;;;;;;;;;11.60;75.01;100218.54;1759436;79;21175;-82
2021/11/20 11:20:39;;;;;;;;;;;;;;;11.78;74.24;100211.81;1762835;79;20164;-77
2021/11/20 11:23:29;;;;;;;;;;;;;;;11.61;74.37;100240.05;1761283;80;20181;-81
2021/11/20 11:25:58;;;;;;;;;;;;;;;11.59;74.31;100207.61;1664164;84;21122;-79
2021/11/20 11:28:36;;;;;;;;;;;;;;;11.70;73.81;100207.33;1727345;80;21995;-82
2021/11/20 11:31:09;;;;;;;;;;;;;;;11.76;73.72;100215.09;1759739;80;20205;-78
2021/11/20 11:33:41;;;;;;;;;;;;;;;11.70;74.10;100209.98;1755884;80;20189;-80
2021/11/20 11:36:31;;;;;;;;;;;;;;;11.70;73.65;100201.20;1757320;79;20232;-78
2021/11/20 11:39:21;;;;;;;;;;;;;;;11.73;73.39;100208.33;1761010;80;20224;-80
2021/11/20 11:42:00;;;;;;;;;;;;;;;11.57;74.35;100218.86;1761748;80;21081;-78
2021/11/20 11:44:29;;;;;;;;;;;;;;;11.64;74.46;100202.69;1761911;80;20245;-79
2021/11/20 11:47:18;;;;;;;;;;;;;;;11.74;74.42;100217.09;1761485;80;20600;-78
2021/11/20 11:50:02;;;;;;;;;;;;;;;11.78;74.33;100215.28;1757626;79;21353;-79
2021/11/20 11:52:47;;;;;;;;;;;;;;;11.84;74.40;100226.53;1762478;80;20450;-78
2021/11/20 11:55:17;;;;;;;;;;;;;;;11.89;74.37;100229.20;1760165;80;21154;-78
2021/11/20 11:58:12;;;;;;;;;;;;;;;11.78;73.96;100225.86;1755013;80;20164;-78
2021/11/20 12:00:41;;;;;;;;;;;;;;;11.80;73.76;100230.48;1760710;80;20948;-77
2021/11/20 12:03:29;;;;;;;;;;;;;;;11.81;73.29;100224.22;1757255;80;20240;-76
2021/11/20 12:06:17;;;;;;;;;;;;;;;11.66;73.84;100227.97;1761488;80;21016;-77
2021/11/20 12:08:52;;;;;;;;;;;;;;;11.81;73.43;100210.98;1756658;80;22047;-79
2021/11/20 12:11:30;;;;;;;;;;;;;;;11.71;73.85;100224.84;1758870;80;20556;-79
2021/11/20 12:14:12;;;;;;;;;;;;;;;11.76;73.51;100201.39;1766740;80;20159;-81
2021/11/20 12:16:57;;;;;;;;;;;;;;;11.86;72.97;100192.79;1763182;80;20163;-80
2021/11/20 12:19:34;;;;;;;;;;;;;;;11.90;73.04;100196.44;1761918;80;20225;-79
2021/11/20 12:22:23;;;;;;;;;;;;;;;11.94;73.12;100192.51;1760195;80;20134;-77
2021/11/20 12:24:55;;;;;;;;;;;;;;;11.92;72.49;100199.77;1762224;80;20208;-79
2021/11/20 12:27:27;;;;;;;;;;;;;;;11.76;72.81;100178.91;1722274;80;20235;-78
2021/11/20 12:30:08;;;;;;;;;;;;;;;12.02;72.32;100176.16;1760017;80;20193;-78
2021/11/20 12:32:54;;;;;;;;;;;;;;;12.00;71.84;100182.59;1761393;80;20169;-81
2021/11/20 12:35:39;;;;;;;;;;;;;;;11.92;72.05;100171.50;1762508;79;21120;-77
2021/11/20 12:38:14;;;;;;;;;;;;;;;11.98;72.27;100191.20;1758849;79;20115;-79
2021/11/20 12:40:51;;;;;;;;;;;;;;;11.93;72.33;100157.77;1764360;80;20256;-77
2021/11/20 12:43:26;;;;;;;;;;;;;;;11.95;72.32;100157.12;1757736;80;20230;-77
2021/11/20 12:46:04;;;;;;;;;;;;;;;11.95;72.12;100162.42;1763706;80;20169;-77
2021/11/20 12:48:56;;;;;;;;;;;;;;;12.06;72.11;100155.47;1759757;80;21366;-80
2021/11/20 12:51:48;;;;;;;;;;;;;;;12.18;71.88;100147.52;1741047;80;20349;-78
2021/11/20 12:54:26;;;;;;;;;;;;;;;12.04;72.14;100142.88;1758960;80;20225;-77